createdAt,value
2022-11-14T00:01:39.032Z,2.90
2022-11-14T00:04:10.733Z,2.80
2022-11-14T00:06:42.682Z,2.90
2022-11-14T00:09:16.483Z,2.90
2022-11-14T00:11:48.241Z,2.90
2022-11-14T00:14:19.993Z,2.90
2022-11-14T00:16:52.825Z,2.90
2022-11-14T00:19:24.513Z,2.80
2022-11-14T00:21:56.208Z,2.80
2022-11-14T00:24:28.144Z,2.80
2022-11-14T00:26:59.898Z,2.80
2022-11-14T00:29:31.647Z,2.80
2022-11-14T00:32:03.462Z,2.80
2022-11-14T00:34:35.469Z,2.80
2022-11-14T00:37:07.281Z,2.70
2022-11-14T00:39:40.713Z,2.70
2022-11-14T00:42:12.407Z,2.60
2022-11-14T00:44:44.158Z,2.60
2022-11-14T00:47:15.881Z,2.60
2022-11-14T00:49:47.759Z,2.60
2022-11-14T00:52:19.479Z,2.60
2022-11-14T00:54:51.202Z,2.60
2022-11-14T00:57:22.966Z,2.60
2022-11-14T00:59:55.703Z,2.70
2022-11-14T01:02:27.456Z,2.70
2022-11-14T01:04:59.370Z,2.80
2022-11-14T01:07:31.595Z,2.80
2022-11-14T01:10:04.482Z,2.90
2022-11-14T01:12:36.639Z,2.90
2022-11-14T01:15:09.007Z,3.00
2022-11-14T01:17:41.022Z,3.10
2022-11-14T01:20:12.982Z,3.30
2022-11-14T01:22:45.835Z,3.40
2022-11-14T01:25:17.622Z,3.40
2022-11-14T01:27:49.423Z,3.40
2022-11-14T01:30:22.219Z,3.50
2022-11-14T01:32:54.140Z,3.60
2022-11-14T01:35:25.915Z,3.70
2022-11-14T01:37:57.719Z,3.70
2022-11-14T01:40:30.973Z,3.70
2022-11-14T01:43:24.102Z,3.80
2022-11-14T01:46:03.954Z,3.80
2022-11-14T01:48:43.371Z,3.70
2022-11-14T01:51:27.506Z,3.70
2022-11-14T01:54:02.835Z,3.70
2022-11-14T01:56:45.708Z,3.70
2022-11-14T01:59:23.736Z,3.70
2022-11-14T02:01:59.053Z,3.70
2022-11-14T02:04:35.510Z,3.70
2022-11-14T02:07:08.744Z,3.80
2022-11-14T02:09:45.484Z,3.80
2022-11-14T02:12:19.037Z,3.80
2022-11-14T02:14:54.872Z,3.90
2022-11-14T02:17:30.507Z,4.00
2022-11-14T02:20:12.499Z,4.00
2022-11-14T02:22:44.309Z,4.00
2022-11-14T02:25:18.977Z,3.90
2022-11-14T02:27:51.555Z,3.90
2022-11-14T02:30:23.648Z,3.90
2022-11-14T02:33:10.428Z,3.90
2022-11-14T02:35:42.875Z,4.00
2022-11-14T02:38:15.237Z,4.00
2022-11-14T02:40:46.950Z,4.00
2022-11-14T02:43:18.680Z,3.90
2022-11-14T02:45:50.873Z,3.90
2022-11-14T02:48:22.553Z,3.90
2022-11-14T02:50:54.241Z,3.90
2022-11-14T02:53:25.910Z,3.90
2022-11-14T02:55:57.689Z,3.90
2022-11-14T02:58:29.850Z,3.90
2022-11-14T03:01:22.126Z,3.90
2022-11-14T03:03:53.653Z,3.90
2022-11-14T03:06:25.841Z,3.90
2022-11-14T03:08:57.598Z,3.90
2022-11-14T03:11:29.486Z,3.90
2022-11-14T03:14:01.483Z,3.90
2022-11-14T03:16:34.320Z,3.90
2022-11-14T03:19:06.002Z,3.80
2022-11-14T03:21:37.705Z,3.80
2022-11-14T03:24:09.375Z,3.80
2022-11-14T03:26:42.276Z,3.90
2022-11-14T03:29:14.008Z,3.90
2022-11-14T03:31:45.872Z,3.90
2022-11-14T03:34:17.622Z,3.90
2022-11-14T03:36:50.372Z,4.00
2022-11-14T03:39:24.812Z,4.00
2022-11-14T03:41:56.569Z,4.00
2022-11-14T03:44:28.361Z,4.00
2022-11-14T03:47:00.204Z,4.00
2022-11-14T03:49:32.073Z,4.10
2022-11-14T03:52:03.903Z,4.10
2022-11-14T03:54:37.849Z,4.00
2022-11-14T03:57:09.546Z,4.00
2022-11-14T03:59:42.264Z,4.00
2022-11-14T04:02:13.932Z,4.00
2022-11-14T04:04:46.145Z,4.00
2022-11-14T04:07:17.870Z,4.00
2022-11-14T04:09:49.642Z,4.00
2022-11-14T04:12:21.407Z,4.00
2022-11-14T04:14:53.431Z,4.00
2022-11-14T04:17:26.117Z,4.00
2022-11-14T04:19:57.859Z,4.00
2022-11-14T04:22:31.596Z,3.90
2022-11-14T04:25:03.749Z,3.90
2022-11-14T04:27:36.929Z,3.90
2022-11-14T04:30:12.018Z,3.80
2022-11-14T04:32:49.307Z,3.80
2022-11-14T04:35:21.054Z,3.70
2022-11-14T04:37:52.734Z,3.70
2022-11-14T04:40:24.961Z,3.70
2022-11-14T04:42:57.560Z,3.60
2022-11-14T04:45:29.359Z,3.60
2022-11-14T04:48:01.115Z,3.70
2022-11-14T04:50:32.799Z,3.70
2022-11-14T04:53:05.653Z,3.60
2022-11-14T04:55:39.178Z,3.60
2022-11-14T04:58:10.940Z,3.60
2022-11-14T05:00:43.036Z,3.50
2022-11-14T05:03:14.827Z,3.50
2022-11-14T05:05:46.743Z,3.40
2022-11-14T05:08:18.553Z,3.40
2022-11-14T05:10:50.323Z,3.30
2022-11-14T05:13:23.810Z,3.30
2022-11-14T05:15:59.905Z,3.30
2022-11-14T05:18:32.605Z,3.20
2022-11-14T05:21:06.031Z,3.20
2022-11-14T05:23:37.690Z,3.10
2022-11-14T05:26:12.817Z,3.10
2022-11-14T05:28:44.773Z,3.00
2022-11-14T05:31:19.252Z,3.00
2022-11-14T05:33:51.570Z,3.00
2022-11-14T05:36:23.625Z,2.90
2022-11-14T05:38:56.128Z,3.00
2022-11-14T05:41:28.026Z,2.90
2022-11-14T05:43:59.777Z,3.00
2022-11-14T05:46:31.490Z,3.00
2022-11-14T05:49:03.318Z,3.10
2022-11-14T05:51:35.148Z,3.20
2022-11-14T05:54:06.966Z,3.20
2022-11-14T05:56:38.700Z,3.10
2022-11-14T05:59:10.575Z,3.10
2022-11-14T06:01:42.313Z,3.10
2022-11-14T06:04:18.018Z,3.10
2022-11-14T06:06:49.982Z,3.20
2022-11-14T06:09:21.887Z,3.20
2022-11-14T06:11:53.884Z,3.20
2022-11-14T06:14:25.635Z,3.30
2022-11-14T06:16:57.700Z,3.30
2022-11-14T06:19:29.437Z,3.30
2022-11-14T06:22:01.398Z,3.30
2022-11-14T06:24:33.246Z,3.30
2022-11-14T06:27:04.941Z,3.30
2022-11-14T06:29:36.689Z,3.40
2022-11-14T06:32:08.509Z,3.50
2022-11-14T06:34:40.172Z,3.50
2022-11-14T06:37:12.280Z,3.50
2022-11-14T06:39:44.147Z,3.50
2022-11-14T06:42:17.096Z,3.60
2022-11-14T06:44:48.877Z,3.60
2022-11-14T06:47:20.621Z,3.60
2022-11-14T06:49:52.362Z,3.70
2022-11-14T06:52:25.888Z,3.70
2022-11-14T06:54:57.619Z,3.80
2022-11-14T06:57:29.823Z,3.90
2022-11-14T07:00:01.716Z,3.90
2022-11-14T07:02:33.482Z,4.00
2022-11-14T07:05:05.694Z,4.00
2022-11-14T07:07:37.546Z,4.10
2022-11-14T07:10:10.085Z,4.20
2022-11-14T07:12:41.782Z,4.20
2022-11-14T07:15:13.603Z,4.30
2022-11-14T07:17:45.273Z,4.30
2022-11-14T07:20:18.613Z,4.30
2022-11-14T07:22:50.387Z,4.30
2022-11-14T07:25:23.239Z,4.20
2022-11-14T07:27:57.850Z,4.30
2022-11-14T07:30:29.703Z,4.20
2022-11-14T07:33:01.445Z,4.20
2022-11-14T07:35:33.450Z,4.20
2022-11-14T07:38:05.280Z,4.20
2022-11-14T07:40:37.154Z,4.20
2022-11-14T07:43:08.833Z,4.20
2022-11-14T07:45:40.536Z,4.30
2022-11-14T07:48:12.272Z,4.30
2022-11-14T07:50:44.562Z,4.40
2022-11-14T07:53:17.713Z,4.50
2022-11-14T07:55:49.489Z,4.50
2022-11-14T07:58:21.660Z,4.60
2022-11-14T08:00:53.522Z,4.70
2022-11-14T08:03:28.479Z,4.80
2022-11-14T08:06:05.357Z,5.10
2022-11-14T08:08:37.527Z,5.30
2022-11-14T08:11:09.497Z,5.60
2022-11-14T08:13:41.218Z,5.70
2022-11-14T08:16:14.188Z,5.90
2022-11-14T08:18:46.146Z,6.00
2022-11-14T08:21:17.800Z,6.00
2022-11-14T08:23:49.567Z,6.10
2022-11-14T08:26:21.308Z,6.20
2022-11-14T08:28:54.403Z,6.20
2022-11-14T08:31:26.294Z,6.30
2022-11-14T08:33:58.685Z,6.40
2022-11-14T08:36:30.369Z,6.40
2022-11-14T08:39:02.404Z,6.30
2022-11-14T08:41:34.146Z,6.20
2022-11-14T08:44:06.185Z,6.50
2022-11-14T08:46:37.961Z,6.70
2022-11-14T08:49:09.717Z,6.90
2022-11-14T08:51:41.563Z,7.10
2022-11-14T08:54:13.388Z,7.20
2022-11-14T08:56:45.184Z,7.20
2022-11-14T08:59:17.059Z,7.30
2022-11-14T09:01:48.736Z,7.40
2022-11-14T09:04:20.526Z,7.40
2022-11-14T09:06:52.353Z,7.50
2022-11-14T09:09:24.467Z,7.50
2022-11-14T09:11:56.168Z,7.60
2022-11-14T09:14:27.857Z,7.60
2022-11-14T09:17:04.594Z,7.60
2022-11-14T09:19:37.810Z,7.60
2022-11-14T09:22:09.954Z,7.60
2022-11-14T09:24:41.789Z,7.60
2022-11-14T09:27:14.004Z,7.70
2022-11-14T09:29:45.718Z,7.60
2022-11-14T09:32:17.932Z,7.60
2022-11-14T09:34:49.654Z,7.50
2022-11-14T09:37:21.375Z,7.60
2022-11-14T09:39:53.059Z,7.60
2022-11-14T09:42:27.710Z,7.70
2022-11-14T09:45:04.202Z,7.80
2022-11-14T09:47:51.485Z,7.80
2022-11-14T09:50:28.782Z,7.80
2022-11-14T09:53:32.750Z,7.80
2022-11-14T09:56:04.591Z,7.90
2022-11-14T09:58:36.554Z,7.90
2022-11-14T10:01:26.376Z,8.00
2022-11-14T10:04:12.264Z,8.00
2022-11-14T10:07:10.067Z,8.10
2022-11-14T10:10:03.028Z,8.30
2022-11-14T10:12:49.961Z,8.60
2022-11-14T10:15:33.836Z,8.90
2022-11-14T10:18:48.074Z,9.20
2022-11-14T10:21:41.249Z,9.30
2022-11-14T10:24:31.311Z,9.30
2022-11-14T10:27:07.095Z,9.30
2022-11-14T10:29:51.655Z,9.30
2022-11-14T10:32:41.810Z,9.30
2022-11-14T10:35:19.638Z,9.20
2022-11-14T10:38:09.877Z,9.20
2022-11-14T10:40:45.683Z,9.20
2022-11-14T10:43:30.054Z,9.30
2022-11-14T10:46:23.407Z,9.50
2022-11-14T10:49:00.072Z,9.60
2022-11-14T10:51:44.330Z,9.60
2022-11-14T10:54:24.697Z,9.60
2022-11-14T10:56:56.520Z,9.70
2022-11-14T10:59:30.501Z,9.70
2022-11-14T11:02:02.186Z,9.80
2022-11-14T11:04:38.819Z,9.90
2022-11-14T11:07:30.741Z,10.00
2022-11-14T11:10:22.708Z,10.10
2022-11-14T11:12:54.550Z,10.20
2022-11-14T11:15:40.957Z,10.20
2022-11-14T11:18:27.630Z,10.20
2022-11-14T11:21:08.968Z,10.20
2022-11-14T11:23:52.663Z,10.20
2022-11-14T11:26:32.721Z,10.10
2022-11-14T11:29:16.628Z,10.10
2022-11-14T11:31:56.823Z,10.00
2022-11-14T11:34:33.257Z,10.00
2022-11-14T11:37:20.446Z,9.90
2022-11-14T11:39:57.413Z,9.90
2022-11-14T11:43:37.253Z,9.80
2022-11-14T11:46:04.782Z,9.80
2022-11-14T11:48:40.507Z,9.80
2022-11-14T11:51:20.497Z,9.80
2022-11-14T11:54:09.146Z,9.80
2022-11-14T11:56:43.328Z,9.80
2022-11-14T11:59:30.158Z,9.90
2022-11-14T12:02:25.120Z,9.90
2022-11-14T12:04:58.400Z,9.90
2022-11-14T12:08:15.950Z,10.00
2022-11-14T12:10:51.624Z,10.10
2022-11-14T12:13:42.097Z,10.10
2022-11-14T12:16:37.557Z,10.20
2022-11-14T12:19:35.678Z,10.30
2022-11-14T12:22:44.425Z,10.40
2022-11-14T12:25:38.387Z,10.50
2022-11-14T12:28:18.756Z,10.70
2022-11-14T12:30:57.436Z,10.80
2022-11-14T12:33:38.782Z,10.80
2022-11-14T12:36:12.818Z,10.90
2022-11-14T12:38:49.143Z,10.90
2022-11-14T12:41:31.014Z,11.00
2022-11-14T12:44:34.167Z,11.00
2022-11-14T12:47:05.925Z,11.00
2022-11-14T12:49:52.855Z,11.10
2022-11-14T12:52:43.815Z,11.20
2022-11-14T12:55:24.323Z,11.30
2022-11-14T12:58:21.518Z,11.40
2022-11-14T13:00:53.216Z,11.60
2022-11-14T13:03:46.933Z,11.60
2022-11-14T13:06:18.585Z,11.70
2022-11-14T13:09:34.650Z,11.70
2022-11-14T13:12:54.328Z,11.70
2022-11-14T13:15:49.889Z,11.70
2022-11-14T13:18:43.773Z,11.60
2022-11-14T13:21:43.812Z,11.60
2022-11-14T13:24:18.706Z,11.60
2022-11-14T13:26:54.956Z,11.60
2022-11-14T13:29:48.466Z,11.60
2022-11-14T13:32:41.949Z,11.70
2022-11-14T13:35:32.154Z,11.70
2022-11-14T13:38:12.766Z,11.80
2022-11-14T13:41:03.403Z,11.80
2022-11-14T13:43:52.741Z,11.80
2022-11-14T13:46:32.768Z,11.80
2022-11-14T13:49:40.438Z,11.80
2022-11-14T13:52:12.991Z,11.80
2022-11-14T13:54:51.527Z,11.90
2022-11-14T13:58:07.719Z,11.90
2022-11-14T14:01:02.468Z,12.00
2022-11-14T14:04:03.774Z,12.10
2022-11-14T14:06:59.032Z,12.20
2022-11-14T14:09:58.700Z,12.20
2022-11-14T14:12:34.602Z,12.20
2022-11-14T14:15:14.228Z,12.30
2022-11-14T14:17:54.156Z,12.30
2022-11-14T14:20:36.564Z,12.30
2022-11-14T14:23:20.551Z,12.30
2022-11-14T14:26:15.727Z,12.20
2022-11-14T14:29:07.237Z,12.20
2022-11-14T14:31:41.760Z,12.20
2022-11-14T14:34:34.528Z,12.20
2022-11-14T14:37:25.306Z,12.20
2022-11-14T14:40:02.459Z,12.10
2022-11-14T14:42:41.595Z,12.10
2022-11-14T14:45:22.114Z,12.00
2022-11-14T14:48:06.637Z,11.90
2022-11-14T14:50:50.593Z,11.70
2022-11-14T14:53:35.690Z,11.60
2022-11-14T14:56:18.707Z,11.50
2022-11-14T14:58:51.494Z,11.40
2022-11-14T15:01:34.122Z,11.30
2022-11-14T15:04:08.732Z,11.30
2022-11-14T15:06:46.432Z,11.20
2022-11-14T15:09:29.666Z,11.10
2022-11-14T15:12:02.832Z,11.10
2022-11-14T15:14:38.712Z,11.00
2022-11-14T15:17:10.880Z,10.90
2022-11-14T15:19:45.895Z,10.80
2022-11-14T15:22:20.583Z,10.60
2022-11-14T15:25:12.866Z,10.40
2022-11-14T15:27:51.445Z,10.20
2022-11-14T15:30:27.646Z,10.10
2022-11-14T15:33:23.133Z,10.00
2022-11-14T15:36:17.658Z,9.90
2022-11-14T15:39:05.243Z,9.80
2022-11-14T15:41:36.954Z,9.60
2022-11-14T15:44:35.612Z,9.50
2022-11-14T15:47:19.028Z,9.50
2022-11-14T15:50:13.633Z,9.50
2022-11-14T15:52:53.840Z,9.30
2022-11-14T15:55:25.837Z,9.20
2022-11-14T15:58:26.016Z,9.10
2022-11-14T16:00:52.177Z,8.90
2022-11-14T16:03:24.243Z,8.80
2022-11-14T16:05:55.904Z,8.70
2022-11-14T16:08:27.722Z,8.60
2022-11-14T16:10:59.572Z,8.50
2022-11-14T16:13:31.688Z,8.50
2022-11-14T16:16:03.649Z,8.40
2022-11-14T16:18:35.377Z,8.30
2022-11-14T16:21:16.168Z,8.20
2022-11-14T16:23:50.057Z,8.10
2022-11-14T16:26:21.739Z,8.10
2022-11-14T16:28:53.470Z,8.10
2022-11-14T16:31:25.189Z,8.00
2022-11-14T16:33:58.024Z,8.00
2022-11-14T16:36:29.787Z,7.90
2022-11-14T16:39:03.594Z,7.90
2022-11-14T16:41:35.241Z,7.80
2022-11-14T16:44:12.573Z,7.80
2022-11-14T16:46:45.491Z,7.70
2022-11-14T16:49:17.911Z,7.70
2022-11-14T16:51:51.080Z,7.60
2022-11-14T16:54:23.220Z,7.60
2022-11-14T16:56:54.882Z,7.50
2022-11-14T16:59:26.542Z,7.50
2022-11-14T17:02:01.680Z,7.40
2022-11-14T17:04:33.512Z,7.40
2022-11-14T17:07:05.650Z,7.40
2022-11-14T17:09:37.642Z,7.30
2022-11-14T17:12:10.361Z,7.30
2022-11-14T17:14:42.066Z,7.20
2022-11-14T17:17:13.811Z,7.20
2022-11-14T17:19:48.394Z,7.20
2022-11-14T17:22:20.104Z,7.20
2022-11-14T17:24:51.764Z,7.20
2022-11-14T17:27:23.527Z,7.20
2022-11-14T17:29:56.215Z,7.20
2022-11-14T17:32:30.120Z,7.20
2022-11-14T17:35:01.822Z,7.20
2022-11-14T17:37:35.151Z,7.20
2022-11-14T17:40:12.737Z,7.20
2022-11-14T17:42:46.919Z,7.20
2022-11-14T17:45:18.656Z,7.20
2022-11-14T17:47:50.988Z,7.30
2022-11-14T17:50:22.723Z,7.30
2022-11-14T17:52:54.621Z,7.30
2022-11-14T17:55:26.346Z,7.30
2022-11-14T17:57:58.035Z,7.30
2022-11-14T18:00:29.764Z,7.30
2022-11-14T18:03:01.532Z,7.30
2022-11-14T18:05:33.985Z,7.40
2022-11-14T18:08:05.689Z,7.40
2022-11-14T18:10:37.669Z,7.40
2022-11-14T18:13:10.230Z,7.50
2022-11-14T18:15:41.984Z,7.50
2022-11-14T18:18:13.710Z,7.50
2022-11-14T18:20:45.447Z,7.60
2022-11-14T18:23:17.582Z,7.60
2022-11-14T18:25:49.243Z,7.70
2022-11-14T18:28:20.949Z,7.70
2022-11-14T18:30:56.693Z,7.70
2022-11-14T18:33:28.320Z,7.70
2022-11-14T18:36:01.564Z,7.70
2022-11-14T18:38:33.646Z,7.70
2022-11-14T18:41:09.365Z,7.70
2022-11-14T18:43:41.509Z,7.80
2022-11-14T18:46:16.199Z,7.80
2022-11-14T18:48:51.983Z,7.80
2022-11-14T18:51:29.226Z,7.90
2022-11-14T18:54:00.893Z,8.10
2022-11-14T18:56:33.139Z,8.30
2022-11-14T18:59:05.242Z,8.40
2022-11-14T19:01:37.080Z,8.50
2022-11-14T19:04:10.721Z,8.60
2022-11-14T19:06:43.750Z,8.60
2022-11-14T19:09:16.510Z,8.50
2022-11-14T19:12:07.344Z,8.50
2022-11-14T19:14:39.035Z,8.50
2022-11-14T19:17:10.718Z,8.70
2022-11-14T19:19:42.475Z,8.60
2022-11-14T19:22:14.316Z,8.60
2022-11-14T19:24:46.417Z,8.50
2022-11-14T19:27:18.270Z,8.40
2022-11-14T19:29:51.279Z,8.40
2022-11-14T19:32:22.947Z,8.30
2022-11-14T19:34:54.621Z,8.20
2022-11-14T19:37:26.306Z,8.10
2022-11-14T19:39:58.037Z,8.10
2022-11-14T19:42:29.702Z,8.00
2022-11-14T19:45:01.450Z,7.90
2022-11-14T19:47:33.184Z,7.90
2022-11-14T19:50:05.254Z,7.80
2022-11-14T19:52:37.266Z,7.70
2022-11-14T19:55:09.351Z,7.60
2022-11-14T19:57:41.078Z,7.60
2022-11-14T20:00:13.425Z,7.50
2022-11-14T20:02:48.236Z,7.50
2022-11-14T20:05:19.932Z,7.40
2022-11-14T20:07:51.665Z,7.40
2022-11-14T20:10:23.357Z,7.30
2022-11-14T20:12:56.245Z,7.30
2022-11-14T20:15:29.624Z,7.20
2022-11-14T20:18:01.335Z,7.10
2022-11-14T20:20:34.012Z,7.10
2022-11-14T20:23:06.338Z,7.10
2022-11-14T20:25:38.376Z,7.10
2022-11-14T20:28:12.002Z,7.10
2022-11-14T20:30:43.724Z,7.10
2022-11-14T20:33:15.772Z,7.10
2022-11-14T20:35:48.014Z,7.10
2022-11-14T20:38:19.798Z,7.10
2022-11-14T20:40:55.853Z,7.10
2022-11-14T20:43:29.311Z,7.10
2022-11-14T20:46:12.806Z,7.10
2022-11-14T20:48:47.001Z,7.10
2022-11-14T20:51:21.441Z,7.20
2022-11-14T20:53:55.316Z,7.20
2022-11-14T20:56:27.277Z,7.20
2022-11-14T20:58:59.240Z,7.20
2022-11-14T21:01:31.005Z,7.20
2022-11-14T21:04:02.856Z,7.30
2022-11-14T21:06:34.525Z,7.30
2022-11-14T21:09:06.205Z,7.30
2022-11-14T21:11:37.996Z,7.30
2022-11-14T21:14:11.923Z,7.30
2022-11-14T21:16:43.643Z,7.30
2022-11-14T21:19:15.443Z,7.30
2022-11-14T21:21:47.113Z,7.30
2022-11-14T21:24:20.946Z,7.20
2022-11-14T21:26:52.718Z,7.20
2022-11-14T21:29:24.423Z,7.20
2022-11-14T21:31:56.292Z,7.20
2022-11-14T21:34:28.032Z,7.10
2022-11-14T21:37:00.224Z,7.10
2022-11-14T21:39:32.290Z,7.00
2022-11-14T21:42:05.179Z,7.00
2022-11-14T21:44:36.889Z,6.90
2022-11-14T21:47:08.636Z,6.90
2022-11-14T21:49:40.393Z,6.90
2022-11-14T21:52:12.070Z,6.80
2022-11-14T21:54:43.829Z,6.80
2022-11-14T21:57:15.588Z,6.80
2022-11-14T21:59:47.316Z,6.80
2022-11-14T22:02:37.564Z,6.80
2022-11-14T22:05:09.311Z,6.80
2022-11-14T22:07:42.132Z,6.80
2022-11-14T22:10:13.866Z,6.80
2022-11-14T22:12:45.537Z,6.80
2022-11-14T22:15:17.201Z,6.80
2022-11-14T22:17:48.920Z,6.80
2022-11-14T22:20:20.644Z,6.80
2022-11-14T22:22:54.446Z,6.80
2022-11-14T22:25:26.228Z,6.80
2022-11-14T22:27:58.436Z,6.70
2022-11-14T22:30:30.362Z,6.70
2022-11-14T22:33:02.089Z,6.60
2022-11-14T22:35:35.449Z,6.60
2022-11-14T22:38:07.097Z,6.60
2022-11-14T22:40:38.767Z,6.50
2022-11-14T22:43:10.464Z,6.50
2022-11-14T22:45:42.156Z,6.40
2022-11-14T22:48:13.814Z,6.40
2022-11-14T22:50:45.783Z,6.40
2022-11-14T22:53:17.434Z,6.30
2022-11-14T22:55:49.283Z,6.30
2022-11-14T22:58:21.199Z,6.30
2022-11-14T23:00:53.141Z,6.30
2022-11-14T23:03:24.866Z,6.30
2022-11-14T23:05:56.557Z,6.20
2022-11-14T23:08:28.372Z,6.20
2022-11-14T23:11:04.081Z,6.20
2022-11-14T23:13:44.181Z,6.20
2022-11-14T23:16:19.299Z,6.20
2022-11-14T23:18:53.155Z,6.20
2022-11-14T23:21:30.475Z,6.20
2022-11-14T23:24:06.072Z,6.20
2022-11-14T23:26:39.161Z,6.20
2022-11-14T23:29:14.348Z,6.10
2022-11-14T23:31:46.610Z,6.10
2022-11-14T23:34:18.276Z,6.10
2022-11-14T23:36:50.008Z,6.10
2022-11-14T23:39:21.890Z,6.10
2022-11-14T23:41:53.560Z,6.10
2022-11-14T23:44:25.218Z,6.10
2022-11-14T23:46:57.910Z,6.10
2022-11-14T23:49:30.257Z,6.20
2022-11-14T23:52:01.913Z,6.20
2022-11-14T23:54:33.581Z,6.20
2022-11-14T23:57:05.580Z,6.30
2022-11-14T23:59:37.300Z,6.30
